createdAt,value
2023-03-03T00:01:50.230Z,2.73
2023-03-03T00:04:16.862Z,2.74
2023-03-03T00:06:45.376Z,2.76
2023-03-03T00:09:11.991Z,2.80
2023-03-03T00:11:38.668Z,2.79
2023-03-03T00:14:23.065Z,2.78
2023-03-03T00:16:50.162Z,2.71
2023-03-03T00:19:19.605Z,2.71
2023-03-03T00:21:48.110Z,2.73
2023-03-03T00:24:14.734Z,2.75
2023-03-03T00:26:47.472Z,2.75
2023-03-03T00:29:40.762Z,2.72
2023-03-03T00:32:24.029Z,2.70
2023-03-03T00:34:53.080Z,2.67
2023-03-03T00:37:25.411Z,2.67
2023-03-03T00:39:52.045Z,2.63
2023-03-03T00:42:19.369Z,2.63
2023-03-03T00:44:56.981Z,2.66
2023-03-03T00:47:32.526Z,2.69
2023-03-03T00:50:08.147Z,2.68
2023-03-03T00:52:40.568Z,2.71
2023-03-03T00:55:08.368Z,2.69
2023-03-03T00:57:35.142Z,2.66
2023-03-03T01:00:01.916Z,2.62
2023-03-03T01:02:28.739Z,2.63
2023-03-03T01:04:58.276Z,2.64
2023-03-03T01:07:25.532Z,2.68
2023-03-03T01:09:52.370Z,2.69
2023-03-03T01:12:19.014Z,2.74
2023-03-03T01:14:46.137Z,2.74
2023-03-03T01:17:12.784Z,2.75
2023-03-03T01:19:39.393Z,2.74
2023-03-03T01:22:06.324Z,2.74
2023-03-03T01:24:33.468Z,2.72
2023-03-03T01:27:00.319Z,2.72
2023-03-03T01:29:27.179Z,2.71
2023-03-03T01:31:54.829Z,2.75
2023-03-03T01:34:21.899Z,2.70
2023-03-03T01:36:48.663Z,2.67
2023-03-03T01:39:15.378Z,2.68
2023-03-03T01:41:42.089Z,2.68
2023-03-03T01:44:14.784Z,2.67
2023-03-03T01:47:14.428Z,2.67
2023-03-03T01:49:49.819Z,2.66
2023-03-03T01:52:28.005Z,2.65
2023-03-03T01:55:00.410Z,2.65
2023-03-03T01:57:33.136Z,2.69
2023-03-03T02:00:02.652Z,2.64
2023-03-03T02:02:30.047Z,2.65
2023-03-03T02:04:56.715Z,2.64
2023-03-03T02:07:25.843Z,2.66
2023-03-03T02:10:05.025Z,2.66
2023-03-03T02:12:37.901Z,2.65
2023-03-03T02:15:28.217Z,2.61
2023-03-03T02:18:03.375Z,2.62
2023-03-03T02:24:33.552Z,2.61
2023-03-03T02:29:39.636Z,2.58
2023-03-03T02:32:06.300Z,2.60
2023-03-03T02:34:46.346Z,2.63
2023-03-03T02:37:13.039Z,2.67
2023-03-03T02:39:39.665Z,2.66
2023-03-03T02:42:22.193Z,2.63
2023-03-03T02:44:49.336Z,2.64
2023-03-03T02:47:16.039Z,2.64
2023-03-03T02:49:43.392Z,2.63
2023-03-03T02:52:11.379Z,2.66
2023-03-03T02:54:38.553Z,2.66
2023-03-03T02:57:06.207Z,2.67
2023-03-03T03:02:12.537Z,2.66
2023-03-03T03:04:39.255Z,2.65
2023-03-03T03:07:06.023Z,2.63
2023-03-03T03:09:32.682Z,2.64
2023-03-03T03:12:02.499Z,2.65
2023-03-03T03:14:29.467Z,2.65
2023-03-03T03:16:56.287Z,2.62
2023-03-03T03:19:23.038Z,2.62
2023-03-03T03:21:49.707Z,2.63
2023-03-03T03:24:16.521Z,2.58
2023-03-03T03:26:43.144Z,2.57
2023-03-03T03:29:10.460Z,2.56
2023-03-03T03:31:38.010Z,2.56
2023-03-03T03:34:04.675Z,2.53
2023-03-03T03:36:31.313Z,2.51
2023-03-03T03:38:57.975Z,2.48
2023-03-03T03:41:24.636Z,2.57
2023-03-03T03:43:51.600Z,2.56
2023-03-03T03:46:18.298Z,2.52
2023-03-03T03:48:45.669Z,2.49
2023-03-03T03:51:12.883Z,2.46
2023-03-03T03:53:39.657Z,2.42
2023-03-03T03:56:06.684Z,2.39
2023-03-03T03:58:33.489Z,2.39
2023-03-03T04:01:07.997Z,2.35
2023-03-03T04:03:35.333Z,2.31
2023-03-03T04:06:01.978Z,2.27
2023-03-03T04:08:28.705Z,2.25
2023-03-03T04:10:55.365Z,2.27
2023-03-03T04:13:22.026Z,2.29
2023-03-03T04:15:48.917Z,2.32
2023-03-03T04:18:15.619Z,2.29
2023-03-03T04:20:42.388Z,2.29
2023-03-03T04:23:09.036Z,2.30
2023-03-03T04:25:35.712Z,2.30
2023-03-03T04:28:03.992Z,2.28
2023-03-03T04:30:32.580Z,2.26
2023-03-03T04:32:59.217Z,2.24
2023-03-03T04:35:25.895Z,2.26
2023-03-03T04:37:52.625Z,2.26
2023-03-03T04:40:19.379Z,2.20
2023-03-03T04:42:46.358Z,2.21
2023-03-03T04:45:13.144Z,2.19
2023-03-03T04:47:40.228Z,2.22
2023-03-03T04:50:08.115Z,2.23
2023-03-03T04:52:34.778Z,2.17
2023-03-03T04:55:01.426Z,2.17
2023-03-03T04:57:28.071Z,2.16
2023-03-03T04:59:54.899Z,2.18
2023-03-03T05:02:21.648Z,2.18
2023-03-03T05:04:48.424Z,2.17
2023-03-03T05:07:15.159Z,2.18
2023-03-03T05:09:41.776Z,2.20
2023-03-03T05:12:08.502Z,2.21
2023-03-03T05:14:35.197Z,2.19
2023-03-03T05:17:03.563Z,2.19
2023-03-03T05:19:30.307Z,2.21
2023-03-03T05:21:57.757Z,2.23
2023-03-03T05:24:24.562Z,2.24
2023-03-03T05:26:51.281Z,2.22
2023-03-03T05:29:17.955Z,2.22
2023-03-03T05:31:45.717Z,2.23
2023-03-03T05:34:12.527Z,2.27
2023-03-03T05:36:39.317Z,2.31
2023-03-03T05:39:06.069Z,2.33
2023-03-03T05:41:32.720Z,2.31
2023-03-03T05:43:59.395Z,2.30
2023-03-03T05:46:26.071Z,2.31
2023-03-03T05:48:52.724Z,2.29
2023-03-03T05:51:19.557Z,2.31
2023-03-03T05:53:46.186Z,2.33
2023-03-03T05:56:12.810Z,2.40
2023-03-03T05:58:39.508Z,2.45
2023-03-03T06:01:06.204Z,2.45
2023-03-03T06:03:33.433Z,2.43
2023-03-03T06:06:00.234Z,2.47
2023-03-03T06:08:26.864Z,2.49
2023-03-03T06:10:53.489Z,2.46
2023-03-03T06:13:20.132Z,2.44
2023-03-03T06:15:46.805Z,2.44
2023-03-03T06:18:13.484Z,2.45
2023-03-03T06:20:40.239Z,2.52
2023-03-03T06:23:06.970Z,2.56
2023-03-03T06:25:35.799Z,2.59
2023-03-03T06:28:04.021Z,2.59
2023-03-03T06:30:30.818Z,2.59
2023-03-03T06:32:57.609Z,2.62
2023-03-03T06:35:24.524Z,2.64
2023-03-03T06:37:51.760Z,2.66
2023-03-03T06:40:18.562Z,2.65
2023-03-03T06:42:45.230Z,2.70
2023-03-03T06:45:12.417Z,2.81
2023-03-03T06:47:39.083Z,2.85
2023-03-03T06:50:06.405Z,2.86
2023-03-03T06:52:33.056Z,2.84
2023-03-03T06:55:02.337Z,2.86
2023-03-03T06:57:31.747Z,2.87
2023-03-03T07:00:20.831Z,2.86
2023-03-03T07:02:53.854Z,2.92
2023-03-03T07:05:21.408Z,3.05
2023-03-03T07:07:48.167Z,3.15
2023-03-03T07:10:26.774Z,3.19
2023-03-03T07:12:54.520Z,3.18
2023-03-03T07:15:34.814Z,3.26
2023-03-03T07:18:02.641Z,3.35
2023-03-03T07:20:41.841Z,3.45
2023-03-03T07:23:23.377Z,3.50
2023-03-03T07:25:51.144Z,3.48
2023-03-03T07:28:25.220Z,3.51
2023-03-03T07:30:54.074Z,3.57
2023-03-03T07:33:20.744Z,3.62
2023-03-03T07:35:47.675Z,3.68
2023-03-03T07:38:14.320Z,3.72
2023-03-03T07:40:49.663Z,3.81
2023-03-03T07:43:43.689Z,3.95
2023-03-03T07:46:10.311Z,4.04
2023-03-03T07:48:42.953Z,4.16
2023-03-03T07:51:37.258Z,4.30
2023-03-03T07:54:28.643Z,4.42
2023-03-03T07:57:08.245Z,4.53
2023-03-03T07:59:37.165Z,4.62
2023-03-03T08:02:17.091Z,4.66
2023-03-03T08:04:52.664Z,4.70
2023-03-03T08:07:22.483Z,4.75
2023-03-03T08:10:02.290Z,4.81
2023-03-03T08:12:42.135Z,4.95
2023-03-03T08:15:25.093Z,5.12
2023-03-03T08:17:54.452Z,5.25
2023-03-03T08:20:44.551Z,5.41
2023-03-03T08:23:12.856Z,5.53
2023-03-03T08:25:40.775Z,5.60
2023-03-03T08:28:07.418Z,5.67
2023-03-03T08:30:34.314Z,5.77
2023-03-03T08:33:01.476Z,5.85
2023-03-03T08:35:28.399Z,5.88
2023-03-03T08:37:55.346Z,5.98
2023-03-03T08:40:22.087Z,6.49
2023-03-03T08:42:48.948Z,6.34
2023-03-03T08:45:15.845Z,6.57
2023-03-03T08:47:43.306Z,6.90
2023-03-03T08:50:11.075Z,7.13
2023-03-03T08:52:37.786Z,7.33
2023-03-03T08:55:05.892Z,7.78
2023-03-03T08:57:33.677Z,7.97
2023-03-03T09:00:00.619Z,8.18
2023-03-03T09:02:27.340Z,8.48
2023-03-03T09:04:53.996Z,8.62
2023-03-03T09:07:20.684Z,8.67
2023-03-03T09:09:47.452Z,8.00
2023-03-03T09:12:29.819Z,8.34
2023-03-03T09:15:00.359Z,8.77
2023-03-03T09:17:34.407Z,8.69
2023-03-03T09:20:22.207Z,8.66
2023-03-03T09:22:50.652Z,8.64
2023-03-03T09:25:33.659Z,8.64
2023-03-03T09:28:04.774Z,8.78
2023-03-03T09:30:40.084Z,9.18
2023-03-03T09:33:39.134Z,9.13
2023-03-03T09:36:35.570Z,9.33
2023-03-03T09:39:24.114Z,9.57
2023-03-03T09:42:16.329Z,9.67
2023-03-03T09:45:18.092Z,10.05
2023-03-03T09:47:48.012Z,10.36
2023-03-03T09:50:56.215Z,10.49
2023-03-03T09:53:44.125Z,10.67
2023-03-03T09:56:13.378Z,10.05
2023-03-03T09:59:01.170Z,9.94
2023-03-03T10:01:49.216Z,9.89
2023-03-03T10:04:37.916Z,10.14
2023-03-03T10:07:19.176Z,10.24
2023-03-03T10:10:13.773Z,10.11
2023-03-03T10:13:00.636Z,10.06
2023-03-03T10:15:40.555Z,9.83
2023-03-03T10:18:24.581Z,9.71
2023-03-03T10:21:37.479Z,9.94
2023-03-03T10:24:17.295Z,9.53
2023-03-03T10:27:14.602Z,9.06
2023-03-03T10:30:24.286Z,9.11
2023-03-03T10:33:33.120Z,9.12
2023-03-03T10:36:11.983Z,9.06
2023-03-03T10:38:59.881Z,9.15
2023-03-03T10:42:07.831Z,9.18
2023-03-03T10:44:46.106Z,9.21
2023-03-03T10:47:46.719Z,9.18
2023-03-03T10:50:35.783Z,9.12
2023-03-03T10:53:21.148Z,9.10
2023-03-03T10:56:14.611Z,8.96
2023-03-03T10:59:01.324Z,8.92
2023-03-03T11:01:59.139Z,9.00
2023-03-03T11:04:44.327Z,8.81
2023-03-03T11:07:22.562Z,8.86
2023-03-03T11:10:21.437Z,8.89
2023-03-03T11:13:09.132Z,9.24
2023-03-03T11:15:47.328Z,9.32
2023-03-03T11:18:22.297Z,9.42
2023-03-03T11:21:06.028Z,9.39
2023-03-03T11:23:41.400Z,9.18
2023-03-03T11:26:15.708Z,9.13
2023-03-03T11:29:04.470Z,9.03
2023-03-03T11:31:38.477Z,9.06
2023-03-03T11:34:21.123Z,9.16
2023-03-03T11:37:01.961Z,9.33
2023-03-03T11:39:28.579Z,9.49
2023-03-03T11:42:17.280Z,9.56
2023-03-03T11:45:00.548Z,9.69
2023-03-03T11:47:39.285Z,10.06
2023-03-03T11:50:17.329Z,10.28
2023-03-03T11:52:47.848Z,10.28
2023-03-03T11:55:37.861Z,9.87
2023-03-03T11:58:25.127Z,9.75
2023-03-03T12:01:03.178Z,9.71
2023-03-03T12:03:45.987Z,9.94
2023-03-03T12:06:27.796Z,9.97
2023-03-03T12:09:21.978Z,9.94
2023-03-03T12:12:08.828Z,9.80
2023-03-03T12:15:03.732Z,9.75
2023-03-03T12:17:41.210Z,9.76
2023-03-03T12:20:22.782Z,9.46
2023-03-03T12:23:06.539Z,9.52
2023-03-03T12:25:41.136Z,9.44
2023-03-03T12:28:21.585Z,9.59
2023-03-03T12:31:16.062Z,9.58
2023-03-03T12:33:58.737Z,9.54
2023-03-03T12:37:12.770Z,9.60
2023-03-03T12:39:48.211Z,9.48
2023-03-03T12:42:31.874Z,9.56
2023-03-03T12:45:21.680Z,9.55
2023-03-03T12:47:58.362Z,9.43
2023-03-03T12:50:34.497Z,9.43
2023-03-03T12:53:13.027Z,9.27
2023-03-03T12:55:53.689Z,9.38
2023-03-03T12:58:33.970Z,9.41
2023-03-03T13:01:30.497Z,9.41
2023-03-03T13:04:27.755Z,9.29
2023-03-03T13:07:10.283Z,9.35
2023-03-03T13:10:14.492Z,9.23
2023-03-03T13:12:50.396Z,9.17
2023-03-03T13:15:32.850Z,9.32
2023-03-03T13:18:24.933Z,9.30
2023-03-03T13:21:14.236Z,9.31
2023-03-03T13:23:55.813Z,9.43
2023-03-03T13:26:45.168Z,9.46
2023-03-03T13:29:30.431Z,9.38
2023-03-03T13:32:01.417Z,9.41
2023-03-03T13:34:43.325Z,9.16
2023-03-03T13:37:16.024Z,9.10
2023-03-03T13:40:01.505Z,9.29
2023-03-03T13:42:43.329Z,9.35
2023-03-03T13:45:27.523Z,9.51
2023-03-03T13:48:32.145Z,9.44
2023-03-03T13:51:08.637Z,9.34
2023-03-03T13:53:59.648Z,9.17
2023-03-03T13:56:44.486Z,9.24
2023-03-03T13:59:26.052Z,9.22
2023-03-03T14:02:17.904Z,9.31
2023-03-03T14:04:57.857Z,9.11
2023-03-03T14:08:01.781Z,9.14
2023-03-03T14:10:49.021Z,8.87
2023-03-03T14:13:47.183Z,8.89
2023-03-03T14:16:19.541Z,8.89
2023-03-03T14:19:15.070Z,8.91
2023-03-03T14:22:15.574Z,8.90
2023-03-03T14:25:06.603Z,9.01
2023-03-03T14:27:48.123Z,9.01
2023-03-03T14:30:27.029Z,8.91
2023-03-03T14:33:18.761Z,9.07
2023-03-03T14:36:00.422Z,8.95
2023-03-03T14:38:33.185Z,8.93
2023-03-03T14:41:12.077Z,9.00
2023-03-03T14:43:41.039Z,8.96
2023-03-03T14:46:36.776Z,9.01
2023-03-03T14:49:15.082Z,9.00
2023-03-03T14:51:47.993Z,8.99
2023-03-03T14:54:24.784Z,8.93
2023-03-03T14:57:07.176Z,8.86
2023-03-03T14:59:33.988Z,8.76
2023-03-03T15:02:18.788Z,8.69
2023-03-03T15:04:47.711Z,8.67
2023-03-03T15:07:23.321Z,8.59
2023-03-03T15:09:50.508Z,8.55
2023-03-03T15:12:44.606Z,8.52
2023-03-03T15:15:22.446Z,8.49
2023-03-03T15:18:13.538Z,8.47
2023-03-03T15:21:00.761Z,8.46
2023-03-03T15:23:39.373Z,8.47
2023-03-03T15:26:30.052Z,8.52
2023-03-03T15:29:17.600Z,8.53
2023-03-03T15:32:26.171Z,8.54
2023-03-03T15:35:00.099Z,8.56
2023-03-03T15:37:39.490Z,8.58
2023-03-03T15:40:14.936Z,8.54
2023-03-03T15:43:13.491Z,8.59
2023-03-03T15:45:46.754Z,8.57
2023-03-03T15:48:34.527Z,8.53
2023-03-03T15:51:10.377Z,8.49
2023-03-03T15:53:52.603Z,8.48
2023-03-03T15:56:58.424Z,8.51
2023-03-03T15:59:25.094Z,8.44
2023-03-03T16:02:06.781Z,8.36
2023-03-03T16:04:37.658Z,8.29
2023-03-03T16:07:41.554Z,8.19
2023-03-03T16:10:18.751Z,8.04
2023-03-03T16:12:45.425Z,7.98
2023-03-03T16:15:12.074Z,7.89
2023-03-03T16:18:01.982Z,7.82
2023-03-03T16:20:31.269Z,7.71
2023-03-03T16:23:22.552Z,7.58
2023-03-03T16:26:06.279Z,7.45
2023-03-03T16:28:43.938Z,7.31
2023-03-03T16:31:22.468Z,7.09
2023-03-03T16:33:54.878Z,7.00
2023-03-03T16:37:01.673Z,6.79
2023-03-03T16:39:37.031Z,6.67
2023-03-03T16:42:29.370Z,6.60
2023-03-03T16:45:21.823Z,6.44
2023-03-03T16:48:10.405Z,6.33
2023-03-03T16:51:04.959Z,6.20
2023-03-03T16:53:49.223Z,5.93
2023-03-03T16:56:28.786Z,5.83
2023-03-03T16:59:47.138Z,5.82
2023-03-03T17:02:34.986Z,5.62
2023-03-03T17:05:14.624Z,5.43
2023-03-03T17:07:49.459Z,5.38
2023-03-03T17:10:18.992Z,5.33
2023-03-03T17:12:54.444Z,5.22
2023-03-03T17:15:55.195Z,5.19
2023-03-03T17:18:45.906Z,5.15
2023-03-03T17:21:50.090Z,5.04
2023-03-03T17:24:31.946Z,4.92
2023-03-03T17:27:32.237Z,4.86
2023-03-03T17:30:13.054Z,4.80
2023-03-03T17:33:23.355Z,4.75
2023-03-03T17:36:09.051Z,4.71
2023-03-03T17:38:44.404Z,4.65
2023-03-03T17:41:25.985Z,4.57
2023-03-03T17:44:25.345Z,4.53
2023-03-03T17:46:59.039Z,4.52
2023-03-03T17:52:44.114Z,4.51
2023-03-03T17:55:28.604Z,4.53
2023-03-03T17:58:07.164Z,4.51
2023-03-03T18:00:54.091Z,4.51
2023-03-03T18:03:32.938Z,4.53
2023-03-03T18:06:14.986Z,4.58
2023-03-03T18:09:14.287Z,4.58
2023-03-03T18:12:00.922Z,4.59
2023-03-03T18:14:49.231Z,4.59
2023-03-03T18:17:37.643Z,4.58
2023-03-03T18:20:47.510Z,4.59
2023-03-03T18:23:41.890Z,4.59
2023-03-03T18:26:31.328Z,4.54
2023-03-03T18:29:13.868Z,4.54
2023-03-03T18:32:05.100Z,4.51
2023-03-03T18:34:41.777Z,4.51
2023-03-03T18:37:10.934Z,4.46
2023-03-03T18:39:46.670Z,4.45
2023-03-03T18:42:16.416Z,4.42
2023-03-03T18:44:47.989Z,4.34
2023-03-03T18:47:17.673Z,4.25
2023-03-03T18:49:47.105Z,4.20
2023-03-03T18:52:19.924Z,4.12
2023-03-03T18:55:09.958Z,4.05
2023-03-03T18:57:37.703Z,4.03
2023-03-03T19:00:24.538Z,4.02
2023-03-03T19:02:53.993Z,4.02
2023-03-03T19:05:28.775Z,3.98
2023-03-03T19:07:55.284Z,3.91
2023-03-03T19:10:21.905Z,3.87
2023-03-03T19:12:52.833Z,3.83
2023-03-03T19:15:31.625Z,3.80
2023-03-03T19:18:18.890Z,3.74
2023-03-03T19:20:51.509Z,3.69
2023-03-03T19:23:26.117Z,3.64
2023-03-03T19:26:20.945Z,3.60
2023-03-03T19:29:12.216Z,3.56
2023-03-03T19:31:50.451Z,3.49
2023-03-03T19:34:32.786Z,3.42
2023-03-03T19:37:08.472Z,3.37
2023-03-03T19:40:03.457Z,3.32
2023-03-03T19:42:30.088Z,3.26
2023-03-03T19:45:19.614Z,3.19
2023-03-03T19:48:36.758Z,3.12
2023-03-03T19:51:20.867Z,3.05
2023-03-03T19:53:53.375Z,2.98
2023-03-03T19:58:56.706Z,2.82
2023-03-03T20:02:08.133Z,2.74
2023-03-03T20:04:46.740Z,2.68
2023-03-03T20:07:34.937Z,2.59
2023-03-03T20:12:13.314Z,2.46
2023-03-03T20:14:46.887Z,2.37
2023-03-03T20:17:43.356Z,2.30
2023-03-03T20:20:32.554Z,2.27
2023-03-03T20:23:17.909Z,2.22
2023-03-03T20:26:07.612Z,2.13
2023-03-03T20:28:46.542Z,2.09
2023-03-03T20:31:22.041Z,2.01
2023-03-03T20:33:52.424Z,1.96
2023-03-03T20:37:00.574Z,1.94
2023-03-03T20:39:38.937Z,1.90
2023-03-03T20:42:26.982Z,1.81
2023-03-03T20:45:22.151Z,1.76
2023-03-03T20:48:11.687Z,1.74
2023-03-03T20:50:53.991Z,1.70
2023-03-03T20:53:34.870Z,1.66
2023-03-03T20:56:25.667Z,1.65
2023-03-03T20:59:32.067Z,1.59
2023-03-03T21:02:29.509Z,1.54
2023-03-03T21:05:15.927Z,1.45
2023-03-03T21:08:03.162Z,1.40
2023-03-03T21:10:35.750Z,1.39
2023-03-03T21:13:25.628Z,1.35
2023-03-03T21:16:01.900Z,1.32
2023-03-03T21:18:28.662Z,1.28
2023-03-03T21:20:55.421Z,1.23
2023-03-03T21:23:23.132Z,1.17
2023-03-03T21:25:54.837Z,1.09
2023-03-03T21:31:14.162Z,0.89
2023-03-03T21:33:52.481Z,0.79
2023-03-03T21:36:46.387Z,0.74
2023-03-03T21:39:29.490Z,0.74
2023-03-03T21:41:58.154Z,0.69
2023-03-03T21:44:44.865Z,0.63
2023-03-03T21:47:14.885Z,0.59
2023-03-03T21:49:46.782Z,0.58
2023-03-03T21:52:16.502Z,0.55
2023-03-03T21:54:44.603Z,0.52
2023-03-03T21:57:11.641Z,0.46
2023-03-03T21:59:38.591Z,0.46
2023-03-03T22:02:06.089Z,0.43
2023-03-03T22:04:34.436Z,0.39
2023-03-03T22:07:01.327Z,0.34
2023-03-03T22:09:28.051Z,0.31
2023-03-03T22:11:54.699Z,0.29
2023-03-03T22:14:21.417Z,0.27
2023-03-03T22:16:48.046Z,0.26
2023-03-03T22:19:14.754Z,0.23
2023-03-03T22:21:41.410Z,0.21
2023-03-03T22:24:08.878Z,0.23
2023-03-03T22:26:36.024Z,0.17
2023-03-03T22:29:02.732Z,0.11
2023-03-03T22:31:29.391Z,0.14
2023-03-03T22:33:56.175Z,0.11
2023-03-03T22:36:23.482Z,0.11
2023-03-03T22:38:50.265Z,0.08
2023-03-03T22:41:17.672Z,0.10
2023-03-03T22:43:44.566Z,0.03
2023-03-03T22:46:11.699Z,-0.01
2023-03-03T22:48:38.721Z,0.01
2023-03-03T22:51:05.969Z,-0.03
2023-03-03T22:53:32.595Z,-0.07
2023-03-03T22:55:59.343Z,-0.08
2023-03-03T22:58:26.286Z,-0.12
2023-03-03T23:00:54.129Z,-0.19
2023-03-03T23:03:21.317Z,-0.20
2023-03-03T23:05:51.332Z,-0.22
2023-03-03T23:08:18.979Z,-0.23
2023-03-03T23:10:46.149Z,-0.24
2023-03-03T23:15:51.318Z,-0.27
2023-03-03T23:18:17.966Z,-0.24
2023-03-03T23:20:46.146Z,-0.29
2023-03-03T23:23:13.066Z,-0.38
2023-03-03T23:25:39.877Z,-0.37
2023-03-03T23:30:46.437Z,-0.56
2023-03-03T23:33:13.197Z,-0.60
2023-03-03T23:35:40.118Z,-0.59
2023-03-03T23:38:06.847Z,-0.59
2023-03-03T23:42:46.943Z,-0.61
2023-03-03T23:45:14.287Z,-0.64
2023-03-03T23:47:40.981Z,-0.61
2023-03-03T23:50:09.180Z,-0.60
2023-03-03T23:52:36.490Z,-0.66
2023-03-03T23:55:04.253Z,-0.71
2023-03-03T23:57:30.931Z,-0.73
2023-03-03T23:59:57.571Z,-0.78
